Airfield :







YOU CAN JOIN US ON...

 
LOGIN :

Register | Disclaimer

   EN    FR    IT 

 









Legend :    VFR   Marginal VFR   IFR   Intensive IFR   Very Intensive IFR
Visi :
Ceiling :
>= 8 km
>= 3000ft
5 to 8 km
1000 to 3000 ft
1500m to 5 km
500 to 1000 ft
800 to 1500m
200 to 500 ft
< 800m
< 200 ft
Symbols :   Thunderstorms  Fog  Heavy snow  Heavy precipitations  Wind > 20 kt







- Airport Elevation : 11 ft


KGHG - Marshfield Municipal George Harlow Field

CURRENT METAR :
  • 191815Z AUTO VRB05G12KT 10SM CLR 17/09 A3032 RMK AO2

EXPIRED METARs :
  • 191755Z AUTO VRB04G12KT 10SM CLR 17/09 A3032 RMK AO2
  • 191735Z AUTO VRB06KT 10SM CLR 17/08 A3033 RMK AO2
  • 191715Z AUTO VRB05G11KT 10SM CLR 18/09 A3033 RMK AO2
  • 191655Z AUTO VRB05G13KT 10SM CLR 17/08 A3033 RMK AO2
  • 191635Z AUTO VRB04G10KT 10SM FEW027 18/09 A3034 RMK AO2
  • 191615Z AUTO VRB05G11KT 10SM CLR 17/09 A3034 RMK AO2
  • 191555Z AUTO 04007KT 340V080 10SM FEW025 FEW120 17/09 A3034 RMK AO2
  • 191535Z AUTO 01007G12KT 320V050 10SM SCT026 SCT120 17/10 A3034 RMK AO2

TAF N/A
No reported NOTAMs for that airfield.



MET'MAP, your aeronautical weather chart ! - Copyright ORBIFLY December 2007 - Disclaimer

ORBIFLY MET'MAP TEAM :

Programming & Development : Alexandra Zaïnal
Concept & Development : Baudouin d'Aumeries
Co-Development & Prog : Marc-Olivier Méhu
Technical & hardware support : Manuel Goepfert

Contact : metmap@orbifly.com




SOURCES & CREDITS :

   NOAA